KTWF/TWF METAR and TAF weather

Enter ICAO airport designator
Station Type Date Time Source
KTWF METAR 2019/04/25 07:53 UTC NOAA

KTWF 250753Z AUTO 19013KT 10SM CLR 07/M02 A3013 RMK AO2 SLP171 T00721017


Station Type Date Time Source
KTWF Decoded METAR 2019/04/25 07:53 UTC NOAA

JOSLIN FLD-MAGIC VALLEY REGL, ID, United States (KTWF) 42-29N 114-29W 1266M
Apr 25, 2019 - 03:53 AM EDT / 2019.04.25 0753 UTC
Wind: from the S (190 degrees) at 15 MPH (13 KT):0
Visibility: 10 mile(s):0
Sky conditions: clear
Temperature: 45.0 F (7.2 C)
Dew Point: 28.9 F (-1.7 C)
Relative Humidity: 53%
Pressure (altimeter): 30.13 in. Hg (1020 hPa)
ob: KTWF 250753Z AUTO 19013KT 10SM CLR 07/M02 A3013 RMK AO2 SLP171 T00721017
cycle: 8

Station Type Date Time Source
KTWF TAF 2019/04/25 06:22 UTC NOAA

TAF KTWF 250520Z 2506/2606 23010KT P6SM BKN250
FM260200 17007KT P6SM SCT250

Example: see airport list